createdAt,value
2023-05-12T00:00:31.834Z,2.77
2023-05-12T00:01:31.891Z,2.71
2023-05-12T00:02:32.035Z,2.69
2023-05-12T00:03:32.219Z,2.69
2023-05-12T00:04:32.012Z,2.73
2023-05-12T00:05:32.014Z,2.69
2023-05-12T00:06:32.067Z,2.65
2023-05-12T00:07:32.128Z,2.68
2023-05-12T00:08:32.180Z,2.60
2023-05-12T00:09:32.225Z,2.64
2023-05-12T00:10:32.271Z,2.66
2023-05-12T00:11:32.305Z,2.65
2023-05-12T00:12:32.369Z,2.60
2023-05-12T00:13:32.454Z,2.62
2023-05-12T00:14:32.472Z,2.61
2023-05-12T00:15:32.532Z,2.54
2023-05-12T00:16:32.656Z,2.53
2023-05-12T00:17:32.664Z,2.49
2023-05-12T00:18:32.688Z,2.49
2023-05-12T00:19:32.721Z,2.48
2023-05-12T00:20:32.754Z,2.44
2023-05-12T00:21:32.784Z,2.41
2023-05-12T00:22:32.823Z,2.42
2023-05-12T00:23:32.760Z,2.43
2023-05-12T00:24:32.767Z,2.47
2023-05-12T00:25:32.770Z,2.50
2023-05-12T00:26:32.743Z,2.55
2023-05-12T00:27:32.726Z,2.52
2023-05-12T00:28:32.732Z,2.55
2023-05-12T00:29:32.716Z,2.59
2023-05-12T00:30:32.749Z,2.60
2023-05-12T00:31:32.804Z,2.58
2023-05-12T00:32:32.809Z,2.55
2023-05-12T00:33:32.842Z,2.58
2023-05-12T00:34:32.877Z,2.56
2023-05-12T00:35:32.928Z,2.56
2023-05-12T00:36:33.024Z,2.59
2023-05-12T00:37:33.026Z,2.55
2023-05-12T00:38:33.072Z,2.54
2023-05-12T00:39:33.096Z,2.57
2023-05-12T00:40:33.144Z,2.59
2023-05-12T00:41:33.177Z,2.59
2023-05-12T00:42:33.198Z,2.51
2023-05-12T00:43:33.242Z,2.51
2023-05-12T00:44:33.333Z,2.53
2023-05-12T00:45:33.376Z,2.57
2023-05-12T00:46:33.348Z,2.57
2023-05-12T00:47:33.426Z,2.54
2023-05-12T00:48:33.443Z,2.57
2023-05-12T00:49:33.497Z,2.50
2023-05-12T00:50:33.524Z,2.61
2023-05-12T00:51:33.565Z,2.53
2023-05-12T00:52:33.597Z,2.57
2023-05-12T00:53:47.684Z,2.51
2023-05-12T00:54:34.626Z,2.51
2023-05-12T00:55:33.611Z,2.52
2023-05-12T00:56:34.087Z,2.52
2023-05-12T00:57:33.581Z,2.59
2023-05-12T00:58:33.574Z,2.62
2023-05-12T00:59:33.571Z,2.57
2023-05-12T01:00:33.556Z,2.54
2023-05-12T01:01:33.660Z,2.58
2023-05-12T01:02:33.626Z,2.55
2023-05-12T01:03:33.768Z,2.63
2023-05-12T01:04:33.651Z,2.60
2023-05-12T01:05:33.695Z,2.53
2023-05-12T01:06:33.715Z,2.53
2023-05-12T01:07:33.908Z,2.57
2023-05-12T01:08:33.804Z,2.56
2023-05-12T01:09:33.833Z,2.55
2023-05-12T01:10:33.903Z,2.61
2023-05-12T01:11:33.943Z,2.58
2023-05-12T01:12:33.960Z,2.54
2023-05-12T01:13:33.983Z,2.58
2023-05-12T01:14:34.025Z,2.53
2023-05-12T01:15:34.065Z,2.57
2023-05-12T01:16:34.116Z,2.58
2023-05-12T01:17:34.260Z,2.54
2023-05-12T01:18:34.216Z,2.51
2023-05-12T01:19:34.214Z,2.49
2023-05-12T01:20:34.262Z,2.53
2023-05-12T01:21:34.338Z,2.53
2023-05-12T01:22:34.322Z,2.57
2023-05-12T01:23:34.393Z,2.48
2023-05-12T01:24:34.412Z,2.60
2023-05-12T01:25:34.437Z,2.59
2023-05-12T01:26:34.526Z,2.57
2023-05-12T01:27:34.553Z,2.51
2023-05-12T01:28:34.622Z,2.55
2023-05-12T01:29:34.605Z,2.56
2023-05-12T01:30:34.798Z,2.55
2023-05-12T01:31:34.877Z,2.54
2023-05-12T01:32:34.841Z,2.55
2023-05-12T01:33:34.785Z,2.51
2023-05-12T01:34:34.832Z,2.52
2023-05-12T01:35:34.897Z,2.51
2023-05-12T01:36:35.095Z,2.54
2023-05-12T01:37:35.009Z,2.57
2023-05-12T01:38:35.101Z,2.56
2023-05-12T01:39:35.025Z,2.53
2023-05-12T01:40:35.112Z,2.57
2023-05-12T01:41:35.123Z,2.51
2023-05-12T01:42:35.170Z,2.56
2023-05-12T01:43:35.240Z,2.54
2023-05-12T01:44:35.273Z,2.51
2023-05-12T01:45:35.263Z,2.51
2023-05-12T01:46:35.284Z,2.52
2023-05-12T01:47:35.215Z,2.52
2023-05-12T01:48:35.206Z,2.53
2023-05-12T01:49:35.178Z,2.51
2023-05-12T01:50:35.172Z,2.61
2023-05-12T01:51:35.204Z,2.55
2023-05-12T01:52:35.165Z,2.54
2023-05-12T01:53:35.195Z,2.54
2023-05-12T01:54:35.237Z,2.54
2023-05-12T01:55:35.250Z,2.47
2023-05-12T01:56:35.289Z,2.53
2023-05-12T01:57:35.369Z,2.44
2023-05-12T01:58:35.429Z,2.50
2023-05-12T01:59:35.431Z,2.49
2023-05-12T02:00:35.488Z,2.53
2023-05-12T02:01:35.567Z,2.52
2023-05-12T02:02:35.599Z,2.54
2023-05-12T02:03:35.639Z,2.52
2023-05-12T02:04:35.618Z,2.55
2023-05-12T02:05:35.661Z,2.45
2023-05-12T02:06:35.726Z,2.51
2023-05-12T02:07:35.773Z,2.52
2023-05-12T02:08:35.792Z,2.45
2023-05-12T02:09:35.850Z,2.54
2023-05-12T02:10:35.909Z,2.50
2023-05-12T02:11:35.968Z,2.50
2023-05-12T02:12:36.002Z,2.43
2023-05-12T02:13:36.103Z,2.46
2023-05-12T02:14:36.110Z,2.49
2023-05-12T02:15:36.144Z,2.55
2023-05-12T02:16:36.220Z,2.48
2023-05-12T02:17:36.347Z,2.46
2023-05-12T02:18:36.295Z,2.49
2023-05-12T02:19:36.349Z,2.45
2023-05-12T02:20:36.391Z,2.48
2023-05-12T02:21:36.408Z,2.48
2023-05-12T02:22:36.478Z,2.42
2023-05-12T02:23:36.508Z,2.44
2023-05-12T02:24:36.530Z,2.48
2023-05-12T02:25:36.550Z,2.43
2023-05-12T02:26:36.556Z,2.49
2023-05-12T02:27:36.585Z,2.45
2023-05-12T02:28:36.627Z,2.45
2023-05-12T02:29:36.626Z,2.49
2023-05-12T02:30:36.654Z,2.47
2023-05-12T02:31:36.711Z,2.51
2023-05-12T02:32:36.754Z,2.41
2023-05-12T02:33:36.875Z,2.47
2023-05-12T02:34:36.874Z,2.44
2023-05-12T02:35:37.606Z,2.43
2023-05-12T02:36:37.638Z,2.45
2023-05-12T02:37:36.940Z,2.46
2023-05-12T02:38:36.982Z,2.45
2023-05-12T02:39:36.998Z,2.42
2023-05-12T02:40:37.047Z,2.46
2023-05-12T02:41:37.079Z,2.38
2023-05-12T02:42:37.221Z,2.29
2023-05-12T02:43:38.167Z,2.23
2023-05-12T02:44:37.203Z,2.22
2023-05-12T02:45:37.253Z,2.10
2023-05-12T02:46:37.237Z,2.04
2023-05-12T02:47:37.286Z,1.94
2023-05-12T02:48:37.227Z,1.85
2023-05-12T02:49:37.240Z,1.74
2023-05-12T02:50:38.126Z,1.75
2023-05-12T02:51:37.620Z,1.63
2023-05-12T02:52:37.205Z,1.59
2023-05-12T02:53:37.173Z,1.56
2023-05-12T02:54:38.159Z,1.51
2023-05-12T02:55:37.215Z,1.48
2023-05-12T02:56:37.633Z,1.45
2023-05-12T02:57:38.131Z,1.39
2023-05-12T02:58:37.228Z,1.35
2023-05-12T02:59:37.342Z,1.33
2023-05-12T03:00:37.258Z,1.31
2023-05-12T03:01:37.231Z,1.27
2023-05-12T03:02:37.319Z,1.26
2023-05-12T03:03:38.406Z,1.23
2023-05-12T03:04:37.226Z,1.21
2023-05-12T03:05:37.237Z,1.21
2023-05-12T03:06:37.631Z,1.18
2023-05-12T03:07:37.237Z,1.17
2023-05-12T03:08:37.198Z,1.18
2023-05-12T03:09:37.331Z,1.15
2023-05-12T03:10:37.250Z,1.16
2023-05-12T03:11:37.233Z,1.09
2023-05-12T03:12:37.246Z,1.06
2023-05-12T03:13:37.239Z,1.05
2023-05-12T03:14:37.166Z,1.04
2023-05-12T03:15:37.222Z,1.01
2023-05-12T03:16:37.159Z,1.00
2023-05-12T03:17:37.317Z,0.97
2023-05-12T03:18:37.305Z,0.97
2023-05-12T03:19:37.256Z,1.00
2023-05-12T03:20:37.249Z,0.96
2023-05-12T03:21:37.322Z,0.96
2023-05-12T03:22:38.150Z,0.94
2023-05-12T03:23:37.257Z,0.90
2023-05-12T03:24:37.237Z,0.89
2023-05-12T03:25:38.154Z,0.88
2023-05-12T03:26:37.271Z,0.85
2023-05-12T03:27:38.158Z,0.84
2023-05-12T03:28:37.269Z,0.82
2023-05-12T03:29:37.271Z,0.82
2023-05-12T03:30:37.288Z,0.81
2023-05-12T03:31:37.696Z,0.81
2023-05-12T03:32:37.356Z,0.83
2023-05-12T03:33:37.309Z,0.83
2023-05-12T03:34:38.130Z,0.79
2023-05-12T03:35:37.328Z,0.80
2023-05-12T03:36:37.334Z,0.82
2023-05-12T03:37:37.311Z,0.79
2023-05-12T03:38:37.330Z,0.76
2023-05-12T03:39:38.138Z,0.74
2023-05-12T03:40:37.330Z,0.74
2023-05-12T03:41:37.326Z,0.76
2023-05-12T03:42:37.325Z,0.74
2023-05-12T03:43:37.346Z,0.74
2023-05-12T03:44:37.322Z,0.73
2023-05-12T03:45:37.328Z,0.74
2023-05-12T03:46:37.542Z,0.72
2023-05-12T03:47:37.588Z,0.71
2023-05-12T03:48:37.338Z,0.69
2023-05-12T03:49:37.317Z,0.69
2023-05-12T03:50:37.326Z,0.67
2023-05-12T03:51:37.409Z,0.68
2023-05-12T03:52:38.137Z,0.66
2023-05-12T03:53:37.458Z,0.64
2023-05-12T03:54:38.193Z,0.63
2023-05-12T03:55:37.339Z,0.66
2023-05-12T03:56:37.311Z,0.65
2023-05-12T03:57:37.311Z,0.65
2023-05-12T03:58:37.349Z,0.64
2023-05-12T03:59:37.349Z,0.64
2023-05-12T04:00:37.316Z,0.64
2023-05-12T04:01:37.742Z,0.62
2023-05-12T04:02:38.196Z,0.63
2023-05-12T04:03:37.453Z,0.64
2023-05-12T04:04:37.310Z,0.63
2023-05-12T04:05:37.331Z,0.64
2023-05-12T04:06:37.677Z,0.63
2023-05-12T04:07:37.340Z,0.63
2023-05-12T04:08:38.956Z,0.63
2023-05-12T04:09:37.416Z,0.64
2023-05-12T04:10:37.319Z,0.64
2023-05-12T04:11:37.375Z,0.66
2023-05-12T04:12:37.318Z,0.65
2023-05-12T04:13:38.145Z,0.65
2023-05-12T04:14:42.784Z,0.64
2023-05-12T04:15:38.296Z,0.64
2023-05-12T04:16:37.358Z,0.64
2023-05-12T04:17:37.348Z,0.62
2023-05-12T04:18:38.219Z,0.62
2023-05-12T04:19:37.368Z,0.61
2023-05-12T04:20:37.408Z,0.63
2023-05-12T04:21:37.671Z,0.63
2023-05-12T04:22:38.153Z,0.63
2023-05-12T04:23:37.362Z,0.61
2023-05-12T04:24:37.317Z,0.63
2023-05-12T04:25:37.414Z,0.63
2023-05-12T04:26:37.362Z,0.62
2023-05-12T04:27:38.172Z,0.62
2023-05-12T04:28:38.152Z,0.62
2023-05-12T04:29:37.326Z,0.63
2023-05-12T04:30:37.454Z,0.62
2023-05-12T04:31:37.428Z,0.61
2023-05-12T04:32:37.317Z,0.63
2023-05-12T04:33:37.385Z,0.63
2023-05-12T04:34:37.337Z,0.61
2023-05-12T04:35:37.357Z,0.63
2023-05-12T04:36:37.352Z,0.64
2023-05-12T04:37:37.687Z,0.61
2023-05-12T04:38:37.415Z,0.62
2023-05-12T04:39:37.405Z,0.62
2023-05-12T04:40:37.318Z,0.61
2023-05-12T04:41:37.529Z,0.62
2023-05-12T04:42:37.678Z,0.64
2023-05-12T04:44:37.344Z,0.63
2023-05-12T04:45:37.396Z,0.63
2023-05-12T04:46:37.471Z,0.65
2023-05-12T04:47:37.435Z,0.67
2023-05-12T04:48:37.452Z,0.69
2023-05-12T04:49:37.372Z,0.72
2023-05-12T04:50:37.427Z,0.70
2023-05-12T04:51:37.247Z,0.74
2023-05-12T04:52:37.357Z,0.72
2023-05-12T04:53:37.266Z,0.75
2023-05-12T04:54:37.410Z,0.72
2023-05-12T04:55:37.421Z,0.72
2023-05-12T04:56:37.424Z,0.74
2023-05-12T04:57:37.331Z,0.73
2023-05-12T04:58:37.366Z,0.73
2023-05-12T04:59:38.137Z,0.73
2023-05-12T05:00:37.422Z,0.75
2023-05-12T05:01:37.448Z,0.75
2023-05-12T05:02:37.454Z,0.73
2023-05-12T05:03:37.644Z,0.73
2023-05-12T05:04:38.179Z,0.72
2023-05-12T05:05:37.465Z,0.72
2023-05-12T05:06:37.450Z,0.72
2023-05-12T05:07:37.392Z,0.71
2023-05-12T05:08:37.413Z,0.72
2023-05-12T05:09:37.381Z,0.70
2023-05-12T05:10:37.385Z,0.71
2023-05-12T05:11:38.220Z,0.69
2023-05-12T05:12:37.443Z,0.70
2023-05-12T05:13:37.405Z,0.69
2023-05-12T05:14:37.418Z,0.69
2023-05-12T05:15:37.445Z,0.70
2023-05-12T05:16:37.425Z,0.70
2023-05-12T05:17:37.498Z,0.70
2023-05-12T05:18:37.417Z,0.70
2023-05-12T05:19:53.097Z,0.70
2023-05-12T05:21:37.453Z,0.70
2023-05-12T05:22:37.698Z,0.70
2023-05-12T05:23:37.428Z,0.70
2023-05-12T05:24:37.412Z,0.70
2023-05-12T05:25:37.371Z,0.69
2023-05-12T05:26:37.457Z,0.69
2023-05-12T05:27:37.418Z,0.70
2023-05-12T05:28:37.409Z,0.69
2023-05-12T05:29:37.412Z,0.67
2023-05-12T05:30:37.488Z,0.68
2023-05-12T05:31:37.495Z,0.68
2023-05-12T05:32:37.860Z,0.68
2023-05-12T05:33:37.424Z,0.67
2023-05-12T05:34:37.513Z,0.67
2023-05-12T05:35:40.184Z,0.69
2023-05-12T05:36:37.501Z,0.68
2023-05-12T05:37:37.476Z,0.69
2023-05-12T05:38:38.232Z,0.69
2023-05-12T05:39:37.382Z,0.70
2023-05-12T05:40:51.557Z,0.70
2023-05-12T05:41:38.426Z,0.69
2023-05-12T05:42:38.306Z,0.70
2023-05-12T05:43:38.409Z,0.70
2023-05-12T05:44:38.462Z,0.70
2023-05-12T05:45:37.506Z,0.71
2023-05-12T05:46:38.258Z,0.71
2023-05-12T05:47:37.672Z,0.72
2023-05-12T05:48:37.470Z,0.71
2023-05-12T05:49:39.217Z,0.69
2023-05-12T05:50:38.195Z,0.69
2023-05-12T05:51:37.571Z,0.62
2023-05-12T05:52:37.703Z,0.56
2023-05-12T05:53:37.519Z,0.52
2023-05-12T05:54:37.526Z,0.50
2023-05-12T05:55:37.623Z,0.50
2023-05-12T05:56:38.227Z,0.51
2023-05-12T05:57:37.519Z,0.51
2023-05-12T05:58:37.517Z,0.51
2023-05-12T05:59:37.562Z,0.52
2023-05-12T06:00:37.588Z,0.52
2023-05-12T06:01:37.618Z,0.52
2023-05-12T06:02:37.766Z,0.51
2023-05-12T06:03:37.737Z,0.50
2023-05-12T06:04:38.200Z,0.50
2023-05-12T06:05:37.708Z,0.48
2023-05-12T06:06:37.682Z,0.48
2023-05-12T06:07:37.715Z,0.51
2023-05-12T06:08:37.735Z,0.51
2023-05-12T06:09:37.747Z,0.51
2023-05-12T06:10:37.825Z,0.50
2023-05-12T06:11:37.823Z,0.51
2023-05-12T06:12:37.857Z,0.50
2023-05-12T06:13:37.871Z,0.49
2023-05-12T06:14:37.897Z,0.48
2023-05-12T06:15:37.912Z,0.48
2023-05-12T06:16:37.966Z,0.48
2023-05-12T06:17:38.409Z,0.48
2023-05-12T06:18:38.306Z,0.50
2023-05-12T06:19:38.036Z,0.52
2023-05-12T06:20:38.037Z,0.55
2023-05-12T06:21:38.081Z,0.61
2023-05-12T06:22:38.100Z,0.64
2023-05-12T06:23:38.120Z,0.64
2023-05-12T06:24:38.200Z,0.64
2023-05-12T06:25:38.153Z,0.64
2023-05-12T06:26:38.223Z,0.65
2023-05-12T06:27:38.272Z,0.63
2023-05-12T06:28:38.184Z,0.65
2023-05-12T06:29:38.225Z,0.65
2023-05-12T06:30:38.247Z,0.66
2023-05-12T06:31:38.286Z,0.66
2023-05-12T06:32:38.278Z,0.66
2023-05-12T06:33:39.228Z,0.66
2023-05-12T06:34:38.280Z,0.66
2023-05-12T06:35:38.279Z,0.59
2023-05-12T06:36:38.270Z,0.50
2023-05-12T06:37:38.327Z,0.50
2023-05-12T06:38:38.314Z,0.52
2023-05-12T06:39:38.335Z,0.55
2023-05-12T06:40:38.347Z,0.61
2023-05-12T06:41:38.382Z,0.62
2023-05-12T06:42:38.462Z,0.65
2023-05-12T06:43:38.666Z,0.66
2023-05-12T06:44:41.107Z,0.69
2023-05-12T06:45:38.619Z,0.72
2023-05-12T06:46:38.752Z,0.72
2023-05-12T06:47:38.684Z,0.74
2023-05-12T06:48:38.809Z,0.79
2023-05-12T06:49:38.781Z,0.81
2023-05-12T06:50:38.692Z,0.85
2023-05-12T06:51:38.817Z,0.85
2023-05-12T06:52:38.677Z,0.85
2023-05-12T06:53:38.857Z,0.86
2023-05-12T06:54:38.678Z,0.88
2023-05-12T06:55:38.686Z,0.88
2023-05-12T06:56:38.718Z,0.93
2023-05-12T06:57:38.780Z,0.85
2023-05-12T06:58:38.727Z,0.87
2023-05-12T06:59:38.729Z,0.89
2023-05-12T07:00:38.813Z,0.93
2023-05-12T07:01:38.831Z,1.00
2023-05-12T07:02:38.761Z,1.01
2023-05-12T07:03:38.823Z,1.01
2023-05-12T07:04:38.761Z,1.05
2023-05-12T07:05:38.865Z,1.02
2023-05-12T07:06:38.792Z,1.01
2023-05-12T07:07:38.745Z,1.00
2023-05-12T07:08:38.732Z,1.01
2023-05-12T07:09:38.741Z,0.99
2023-05-12T07:10:38.754Z,0.98
2023-05-12T07:11:38.777Z,0.98
2023-05-12T07:12:38.778Z,0.97
2023-05-12T07:13:38.817Z,0.96
2023-05-12T07:14:38.779Z,0.92
2023-05-12T07:15:38.859Z,0.89
2023-05-12T07:16:38.808Z,0.86
2023-05-12T07:17:40.789Z,0.82
2023-05-12T07:18:39.774Z,0.77
2023-05-12T07:19:38.917Z,0.76
2023-05-12T07:20:38.821Z,0.76
2023-05-12T07:21:38.860Z,0.75
2023-05-12T07:22:39.212Z,0.75
2023-05-12T07:23:38.926Z,0.75
2023-05-12T07:24:38.897Z,0.73
2023-05-12T07:25:39.031Z,0.73
2023-05-12T07:26:38.948Z,0.72
2023-05-12T07:27:39.318Z,0.73
2023-05-12T07:28:38.990Z,0.72
2023-05-12T07:29:38.971Z,0.70
2023-05-12T07:30:39.013Z,0.69
2023-05-12T07:31:39.806Z,0.67
2023-05-12T07:32:39.099Z,0.67
2023-05-12T07:33:39.068Z,0.65
2023-05-12T07:34:39.091Z,0.69
2023-05-12T07:35:39.125Z,0.64
2023-05-12T07:36:39.157Z,0.66
2023-05-12T07:37:39.191Z,0.64
2023-05-12T07:38:39.190Z,0.64
2023-05-12T07:39:39.195Z,0.62
2023-05-12T07:40:39.189Z,0.61
2023-05-12T07:41:39.185Z,0.62
2023-05-12T07:42:39.215Z,0.61
2023-05-12T07:43:39.206Z,0.63
2023-05-12T07:44:39.228Z,0.63
2023-05-12T07:45:39.232Z,0.63
2023-05-12T07:46:39.315Z,0.62
2023-05-12T07:47:39.584Z,0.59
2023-05-12T07:48:39.273Z,0.57
2023-05-12T07:49:39.271Z,0.55
2023-05-12T07:50:39.585Z,0.56
2023-05-12T07:51:39.361Z,0.57
2023-05-12T07:52:39.322Z,0.61
2023-05-12T07:53:39.339Z,0.68
2023-05-12T07:54:39.315Z,0.74
2023-05-12T07:55:39.335Z,0.81
2023-05-12T07:56:39.323Z,0.87
2023-05-12T07:57:39.315Z,0.95
2023-05-12T07:58:39.389Z,1.02
2023-05-12T07:59:39.405Z,1.08
2023-05-12T08:00:39.430Z,1.12
2023-05-12T08:01:39.568Z,1.19
2023-05-12T08:02:39.625Z,1.27
2023-05-12T08:03:39.702Z,1.36
2023-05-12T08:04:39.667Z,1.42
2023-05-12T08:05:39.674Z,1.51
2023-05-12T08:06:39.736Z,1.60
2023-05-12T08:07:41.210Z,1.65
2023-05-12T08:08:39.819Z,1.70
2023-05-12T08:09:40.325Z,1.74
2023-05-12T08:10:42.412Z,1.79
2023-05-12T08:11:39.936Z,1.79
2023-05-12T08:12:40.036Z,1.84
2023-05-12T08:13:39.925Z,1.87
2023-05-12T08:14:39.933Z,1.94
2023-05-12T08:15:40.119Z,2.02
2023-05-12T08:16:39.923Z,2.00
2023-05-12T08:17:39.915Z,2.00
2023-05-12T08:18:39.912Z,2.03
2023-05-12T08:19:39.871Z,2.09
2023-05-12T08:20:39.901Z,2.22
2023-05-12T08:21:39.922Z,2.56
2023-05-12T08:22:39.939Z,2.72
2023-05-12T08:23:39.857Z,2.77
2023-05-12T08:24:39.867Z,2.82
2023-05-12T08:25:39.861Z,2.77
2023-05-12T08:26:39.796Z,2.81
2023-05-12T08:27:39.852Z,2.74
2023-05-12T08:28:39.792Z,2.74
2023-05-12T08:29:39.810Z,2.65
2023-05-12T08:30:39.797Z,2.66
2023-05-12T08:31:39.812Z,2.59
2023-05-12T08:32:39.778Z,2.56
2023-05-12T08:33:39.789Z,2.42
2023-05-12T08:34:39.743Z,2.19
2023-05-12T08:35:39.733Z,2.01
2023-05-12T08:36:39.822Z,1.92
2023-05-12T08:37:39.708Z,1.85
2023-05-12T08:38:39.714Z,1.80
2023-05-12T08:39:39.745Z,1.79
2023-05-12T08:40:41.833Z,1.68
2023-05-12T08:41:39.884Z,1.62
2023-05-12T08:42:39.912Z,1.42
2023-05-12T08:43:39.930Z,1.40
2023-05-12T08:44:39.997Z,1.38
2023-05-12T08:45:40.065Z,1.43
2023-05-12T08:46:40.097Z,1.52
2023-05-12T08:47:40.117Z,1.54
2023-05-12T08:48:40.268Z,1.60
2023-05-12T08:49:40.233Z,1.63
2023-05-12T08:50:40.302Z,1.67
2023-05-12T08:51:40.448Z,1.68
2023-05-12T08:52:41.316Z,1.73
2023-05-12T08:53:42.421Z,1.75
2023-05-12T08:54:52.318Z,1.79
2023-05-12T08:55:42.595Z,1.80
2023-05-12T08:57:40.530Z,1.80
2023-05-12T08:58:42.079Z,1.81
2023-05-12T08:59:40.619Z,1.80
2023-05-12T09:00:40.550Z,1.83
2023-05-12T09:01:41.290Z,1.88
2023-05-12T09:02:52.148Z,1.96
2023-05-12T09:03:43.405Z,1.80
2023-05-12T09:04:40.429Z,1.85
2023-05-12T09:05:40.370Z,1.91
2023-05-12T09:06:40.542Z,2.04
2023-05-12T09:07:40.369Z,2.24
2023-05-12T09:08:40.383Z,2.30
2023-05-12T09:09:40.411Z,2.30
2023-05-12T09:10:40.323Z,2.33
2023-05-12T09:11:41.266Z,2.44
2023-05-12T09:12:40.307Z,2.49
2023-05-12T09:13:40.686Z,2.50
2023-05-12T09:14:40.296Z,2.52
2023-05-12T09:15:40.329Z,2.57
2023-05-12T09:16:41.892Z,2.55
2023-05-12T09:17:41.309Z,2.59
2023-05-12T09:18:40.297Z,2.65
2023-05-12T09:19:40.275Z,2.64
2023-05-12T09:20:40.805Z,2.71
2023-05-12T09:21:40.224Z,2.68
2023-05-12T09:22:40.186Z,2.73
2023-05-12T09:23:40.262Z,2.79
2023-05-12T09:24:40.131Z,2.81
2023-05-12T09:25:40.240Z,2.84
2023-05-12T09:26:40.140Z,2.83
2023-05-12T09:27:40.168Z,2.77
2023-05-12T09:28:40.105Z,2.86
2023-05-12T09:29:48.222Z,2.77
2023-05-12T09:30:40.083Z,2.78
2023-05-12T09:31:40.205Z,2.79
2023-05-12T09:32:40.103Z,2.86
2023-05-12T09:33:45.470Z,2.87
2023-05-12T09:34:40.097Z,2.79
2023-05-12T09:35:40.128Z,2.82
2023-05-12T09:36:40.132Z,2.87
2023-05-12T09:37:40.123Z,2.79
2023-05-12T09:38:40.125Z,2.83
2023-05-12T09:39:40.111Z,2.90
2023-05-12T09:40:40.063Z,2.95
2023-05-12T09:41:40.064Z,3.15
2023-05-12T09:42:40.022Z,3.14
2023-05-12T09:43:40.089Z,3.24
2023-05-12T09:44:40.065Z,3.21
2023-05-12T09:45:40.024Z,3.15
2023-05-12T09:46:40.007Z,2.99
2023-05-12T09:47:39.989Z,2.85
2023-05-12T09:48:40.366Z,2.83
2023-05-12T09:49:39.999Z,2.65
2023-05-12T09:50:47.395Z,2.66
2023-05-12T09:51:41.051Z,2.66
2023-05-12T09:52:40.007Z,2.66
2023-05-12T09:53:39.942Z,2.62
2023-05-12T09:54:39.902Z,2.55
2023-05-12T09:55:39.928Z,2.55
2023-05-12T09:56:39.893Z,2.39
2023-05-12T09:57:39.851Z,2.40
2023-05-12T09:58:39.881Z,2.23
2023-05-12T09:59:41.635Z,2.23
2023-05-12T10:01:05.966Z,2.24
2023-05-12T10:01:40.863Z,2.24
2023-05-12T10:02:39.813Z,2.25
2023-05-12T10:03:39.745Z,2.31
2023-05-12T10:04:39.860Z,2.34
2023-05-12T10:05:39.753Z,2.42
2023-05-12T10:06:39.700Z,2.42
2023-05-12T10:07:39.651Z,2.39
2023-05-12T10:08:39.652Z,2.41
2023-05-12T10:09:39.751Z,2.28
2023-05-12T10:10:39.711Z,2.28
2023-05-12T10:11:39.569Z,2.27
2023-05-12T10:12:39.594Z,2.29
2023-05-12T10:13:39.560Z,2.40
2023-05-12T10:14:39.523Z,2.60
2023-05-12T10:15:39.477Z,2.60
2023-05-12T10:16:39.497Z,2.67
2023-05-12T10:17:39.668Z,2.69
2023-05-12T10:18:39.561Z,2.62
2023-05-12T10:19:39.399Z,2.36
2023-05-12T10:20:39.364Z,2.39
2023-05-12T10:21:39.386Z,2.35
2023-05-12T10:22:39.334Z,2.39
2023-05-12T10:23:39.329Z,2.34
2023-05-12T10:24:39.445Z,2.37
2023-05-12T10:25:39.811Z,2.17
2023-05-12T10:26:39.286Z,2.05
2023-05-12T10:27:39.268Z,2.06
2023-05-12T10:28:39.240Z,2.11
2023-05-12T10:29:39.171Z,2.14
2023-05-12T10:30:39.203Z,2.05
2023-05-12T10:31:39.272Z,1.98
2023-05-12T10:32:39.187Z,1.90
2023-05-12T10:33:39.210Z,1.83
2023-05-12T10:34:39.123Z,1.84
2023-05-12T10:35:39.040Z,1.87
2023-05-12T10:36:39.818Z,1.91
2023-05-12T10:37:39.033Z,1.85
2023-05-12T10:38:38.995Z,1.78
2023-05-12T10:39:38.946Z,1.88
2023-05-12T10:40:38.963Z,1.80
2023-05-12T10:41:38.898Z,1.86
2023-05-12T10:42:38.901Z,1.88
2023-05-12T10:43:38.854Z,1.96
2023-05-12T10:44:38.871Z,2.01
2023-05-12T10:45:38.994Z,1.91
2023-05-12T10:46:38.867Z,2.08
2023-05-12T10:47:38.860Z,2.02
2023-05-12T10:48:38.822Z,2.11
2023-05-12T10:49:38.877Z,2.14
2023-05-12T10:50:38.825Z,2.19
2023-05-12T10:51:38.906Z,2.20
2023-05-12T10:52:39.626Z,2.08
2023-05-12T10:53:49.182Z,2.06
2023-05-12T10:54:39.801Z,2.07
2023-05-12T10:55:38.922Z,2.09
2023-05-12T10:56:38.948Z,2.16
2023-05-12T10:57:39.071Z,2.34
2023-05-12T10:58:39.678Z,2.64
2023-05-12T10:59:38.931Z,2.73
2023-05-12T11:00:38.997Z,2.90
2023-05-12T11:01:39.486Z,2.84
2023-05-12T11:02:39.864Z,2.84
2023-05-12T11:03:39.633Z,3.10
2023-05-12T11:04:38.661Z,3.24
2023-05-12T11:05:38.677Z,3.39
2023-05-12T11:06:39.753Z,3.61
2023-05-12T11:07:39.783Z,3.83
2023-05-12T11:08:39.988Z,4.14
2023-05-12T11:09:43.429Z,4.29
2023-05-12T11:10:39.769Z,4.30
2023-05-12T11:11:54.256Z,4.38
2023-05-12T11:12:42.104Z,4.33
2023-05-12T11:13:38.290Z,4.34
2023-05-12T11:14:38.310Z,4.53
2023-05-12T11:15:38.246Z,4.88
2023-05-12T11:16:38.324Z,5.45
2023-05-12T11:17:38.284Z,6.27
2023-05-12T11:18:38.216Z,6.51
2023-05-12T11:19:38.147Z,6.76
2023-05-12T11:20:38.087Z,6.89
2023-05-12T11:21:38.077Z,6.85
2023-05-12T11:22:38.049Z,7.06
2023-05-12T11:23:38.037Z,7.22
2023-05-12T11:24:38.843Z,7.33
2023-05-12T11:25:38.025Z,7.54
2023-05-12T11:26:37.956Z,7.53
2023-05-12T11:27:38.058Z,7.45
2023-05-12T11:28:38.869Z,7.49
2023-05-12T11:29:38.950Z,7.54
2023-05-12T11:30:37.870Z,7.39
2023-05-12T11:31:37.839Z,7.17
2023-05-12T11:32:37.996Z,7.26
2023-05-12T11:33:37.752Z,7.03
2023-05-12T11:34:37.731Z,6.96
2023-05-12T11:35:37.703Z,6.92
2023-05-12T11:36:37.692Z,6.80
2023-05-12T11:37:37.731Z,6.79
2023-05-12T11:38:37.660Z,6.47
2023-05-12T11:39:37.636Z,6.47
2023-05-12T11:40:37.728Z,6.49
2023-05-12T11:41:38.321Z,6.46
2023-05-12T11:42:37.638Z,6.32
2023-05-12T11:43:37.516Z,6.41
2023-05-12T11:44:37.545Z,6.37
2023-05-12T11:45:37.471Z,6.36
2023-05-12T11:46:37.636Z,6.30
2023-05-12T11:47:37.468Z,6.34
2023-05-12T11:48:37.381Z,6.38
2023-05-12T11:49:37.358Z,6.64
2023-05-12T11:50:37.358Z,6.40
2023-05-12T11:51:37.330Z,6.33
2023-05-12T11:52:37.309Z,6.38
2023-05-12T11:53:37.303Z,6.46
2023-05-12T11:54:37.253Z,6.52
2023-05-12T11:55:37.243Z,6.52
2023-05-12T11:56:37.204Z,6.48
2023-05-12T11:57:37.308Z,6.53
2023-05-12T11:58:37.153Z,6.59
2023-05-12T11:59:37.176Z,6.61
2023-05-12T12:00:37.130Z,6.53
2023-05-12T12:01:37.111Z,6.48
2023-05-12T12:02:37.218Z,6.49
2023-05-12T12:03:37.278Z,6.54
2023-05-12T12:04:37.110Z,6.43
2023-05-12T12:05:37.081Z,6.57
2023-05-12T12:06:37.114Z,6.54
2023-05-12T12:07:37.327Z,6.80
2023-05-12T12:08:37.220Z,6.87
2023-05-12T12:09:37.221Z,6.91
2023-05-12T12:10:37.221Z,7.19
2023-05-12T12:11:37.289Z,7.15
2023-05-12T12:12:37.303Z,7.46
2023-05-12T12:13:37.296Z,7.65
2023-05-12T12:14:38.411Z,7.76
2023-05-12T12:15:37.394Z,7.92
2023-05-12T12:16:37.420Z,8.05
2023-05-12T12:17:37.356Z,8.18
2023-05-12T12:18:37.426Z,8.28
2023-05-12T12:19:37.533Z,8.42
2023-05-12T12:20:37.443Z,8.59
2023-05-12T12:21:37.599Z,8.64
2023-05-12T12:22:37.527Z,8.69
2023-05-12T12:23:50.001Z,8.85
2023-05-12T12:24:38.544Z,8.87
2023-05-12T12:25:37.489Z,8.91
2023-05-12T12:26:39.389Z,8.99
2023-05-12T12:27:37.464Z,9.11
2023-05-12T12:28:37.418Z,9.15
2023-05-12T12:29:37.427Z,9.21
2023-05-12T12:30:37.426Z,9.35
2023-05-12T12:31:37.524Z,9.32
2023-05-12T12:32:37.485Z,9.25
2023-05-12T12:33:37.714Z,9.45
2023-05-12T12:34:37.541Z,9.49
2023-05-12T12:35:37.677Z,9.25
2023-05-12T12:36:37.710Z,9.52
2023-05-12T12:37:37.715Z,9.33
2023-05-12T12:38:37.727Z,9.15
2023-05-12T12:39:37.784Z,9.30
2023-05-12T12:40:37.784Z,9.28
2023-05-12T12:41:37.895Z,9.44
2023-05-12T12:42:37.852Z,9.25
2023-05-12T12:43:37.942Z,9.07
2023-05-12T12:44:37.991Z,8.97
2023-05-12T12:45:38.029Z,9.19
2023-05-12T12:46:38.031Z,9.20
2023-05-12T12:47:38.228Z,8.91
2023-05-12T12:48:38.121Z,8.90
2023-05-12T12:49:38.153Z,8.91
2023-05-12T12:50:38.171Z,9.01
2023-05-12T12:51:45.625Z,8.83
2023-05-12T12:52:39.192Z,8.84
2023-05-12T12:53:38.155Z,8.85
2023-05-12T12:54:38.148Z,8.85
2023-05-12T12:55:38.128Z,8.82
2023-05-12T12:56:38.118Z,8.67
2023-05-12T12:57:38.056Z,8.85
2023-05-12T12:58:38.231Z,8.62
2023-05-12T12:59:38.030Z,8.66
2023-05-12T13:00:38.938Z,8.66
2023-05-12T13:01:38.021Z,8.65
2023-05-12T13:02:38.144Z,8.39
2023-05-12T13:03:38.234Z,8.37
2023-05-12T13:04:38.090Z,8.49
2023-05-12T13:05:38.182Z,8.32
2023-05-12T13:06:38.165Z,8.46
2023-05-12T13:07:38.177Z,8.38
2023-05-12T13:08:38.204Z,8.24
2023-05-12T13:09:38.395Z,8.38
2023-05-12T13:10:38.272Z,8.19
2023-05-12T13:11:38.884Z,8.17
2023-05-12T13:12:38.573Z,7.93
2023-05-12T13:13:38.410Z,8.08
2023-05-12T13:14:38.436Z,8.10
2023-05-12T13:15:38.484Z,7.99
2023-05-12T13:16:38.664Z,7.95
2023-05-12T13:17:38.629Z,7.92
2023-05-12T13:18:38.630Z,7.99
2023-05-12T13:19:38.641Z,7.89
2023-05-12T13:20:38.669Z,7.74
2023-05-12T13:21:38.709Z,7.94